createdAt,value
2022-12-31T00:01:30.741Z,101571.69
2022-12-31T00:03:58.396Z,101569.16
2022-12-31T00:06:35.677Z,101568.19
2022-12-31T00:09:06.313Z,101571.78
2022-12-31T00:11:35.432Z,101576.97
2022-12-31T00:14:03.494Z,101582.25
2022-12-31T00:16:34.290Z,101571.13
2022-12-31T00:19:02.381Z,101558.03
2022-12-31T00:21:32.252Z,101569.28
2022-12-31T00:24:00.345Z,101576.25
2022-12-31T00:26:30.760Z,101588.56
2022-12-31T00:29:00.029Z,101596.34
2022-12-31T00:31:36.707Z,101594.47
2022-12-31T00:34:05.367Z,101583.28
2022-12-31T00:36:35.376Z,101578.00
2022-12-31T00:39:05.233Z,101591.94
2022-12-31T00:41:33.163Z,101575.53
2022-12-31T00:44:01.188Z,101579.00
2022-12-31T00:46:29.161Z,101579.00
2022-12-31T00:48:56.724Z,101586.72
2022-12-31T00:51:27.593Z,101581.75
2022-12-31T00:53:57.083Z,101567.84
2022-12-31T00:56:27.826Z,101586.16
2022-12-31T00:58:55.839Z,101584.44
2022-12-31T01:01:28.132Z,101588.03
2022-12-31T01:04:07.857Z,101590.63
2022-12-31T01:06:36.354Z,101584.53
2022-12-31T01:09:04.703Z,101587.16
2022-12-31T01:11:33.179Z,101587.16
2022-12-31T01:14:12.697Z,101591.41
2022-12-31T01:16:47.178Z,101586.94
2022-12-31T01:19:19.096Z,101579.22
2022-12-31T01:21:47.717Z,101569.69
2022-12-31T01:24:16.313Z,101565.28
2022-12-31T01:26:44.812Z,101565.38
2022-12-31T01:29:13.137Z,101577.66
2022-12-31T01:31:40.988Z,101566.34
2022-12-31T01:34:09.266Z,101582.13
2022-12-31T01:36:38.189Z,101578.59
2022-12-31T01:39:08.155Z,101582.09
2022-12-31T01:41:42.540Z,101583.06
2022-12-31T01:44:13.062Z,101580.50
2022-12-31T01:46:46.502Z,101584.84
2022-12-31T01:49:36.901Z,101594.41
2022-12-31T01:52:09.025Z,101596.13
2022-12-31T01:54:44.357Z,101597.06
2022-12-31T01:57:13.175Z,101612.78
2022-12-31T01:59:42.466Z,101607.66
2022-12-31T02:02:10.492Z,101608.53
2022-12-31T02:04:39.574Z,101614.63
2022-12-31T02:07:09.149Z,101611.97
2022-12-31T02:09:39.807Z,101623.34
2022-12-31T02:12:08.517Z,101625.13
2022-12-31T02:14:40.055Z,101625.25
2022-12-31T02:17:44.971Z,101625.19
2022-12-31T02:20:41.918Z,101623.59
2022-12-31T02:23:47.800Z,101628.84
2022-12-31T02:26:18.433Z,101628.88
2022-12-31T02:29:01.121Z,101630.63
2022-12-31T02:31:36.517Z,101641.09
2022-12-31T02:34:25.533Z,101639.44
2022-12-31T02:36:58.011Z,101631.66
2022-12-31T02:39:26.097Z,101640.38
2022-12-31T02:41:54.014Z,101636.00
2022-12-31T02:44:28.183Z,101643.00
2022-12-31T02:47:08.150Z,101639.53
2022-12-31T02:49:44.550Z,101640.41
2022-12-31T02:52:17.834Z,101647.38
2022-12-31T02:55:03.074Z,101648.25
2022-12-31T02:58:09.272Z,101649.88
2022-12-31T03:01:04.075Z,101641.09
2022-12-31T03:03:32.840Z,101634.19
2022-12-31T03:06:03.336Z,101644.59
2022-12-31T03:08:31.032Z,101663.69
2022-12-31T03:10:58.750Z,101650.69
2022-12-31T03:13:26.341Z,101661.97
2022-12-31T03:15:54.316Z,101662.03
2022-12-31T03:18:41.847Z,101674.28
2022-12-31T03:21:32.460Z,101686.59
2022-12-31T03:24:18.510Z,101697.13
2022-12-31T03:26:46.105Z,101690.19
2022-12-31T03:29:13.916Z,101681.53
2022-12-31T03:31:41.509Z,101679.81
2022-12-31T03:34:09.209Z,101678.09
2022-12-31T03:36:37.156Z,101681.56
2022-12-31T03:39:05.735Z,101688.56
2022-12-31T03:41:33.444Z,101676.41
2022-12-31T03:44:01.217Z,101678.19
2022-12-31T03:46:28.940Z,101681.66
2022-12-31T03:48:56.455Z,101680.81
2022-12-31T03:51:24.069Z,101679.78
2022-12-31T03:53:51.613Z,101667.66
2022-12-31T03:56:24.660Z,101668.44
2022-12-31T03:58:52.751Z,101650.13
2022-12-31T04:01:24.473Z,101666.66
2022-12-31T04:03:54.137Z,101656.19
2022-12-31T04:06:22.092Z,101663.94
2022-12-31T04:08:50.040Z,101675.13
2022-12-31T04:11:20.986Z,101687.34
2022-12-31T04:13:52.602Z,101704.75
2022-12-31T04:16:20.194Z,101710.88
2022-12-31T04:18:48.316Z,101707.56
2022-12-31T04:21:16.507Z,101707.69
2022-12-31T04:23:44.183Z,101708.59
2022-12-31T04:26:11.775Z,101720.84
2022-12-31T04:28:39.329Z,101717.38
2022-12-31T04:31:06.898Z,101720.91
2022-12-31T04:33:34.914Z,101719.16
2022-12-31T04:36:07.568Z,101720.09
2022-12-31T04:38:35.179Z,101720.13
2022-12-31T04:41:17.401Z,101729.72
2022-12-31T04:43:50.366Z,101725.41
2022-12-31T04:46:20.762Z,101730.63
2022-12-31T04:48:49.591Z,101729.81
2022-12-31T04:51:17.510Z,101743.72
2022-12-31T04:53:45.466Z,101732.47
2022-12-31T04:56:13.484Z,101737.69
2022-12-31T04:58:41.348Z,101747.25
2022-12-31T05:01:09.952Z,101752.50
2022-12-31T05:03:39.256Z,101763.06
2022-12-31T05:06:14.506Z,101757.81
2022-12-31T05:08:42.432Z,101763.91
2022-12-31T05:11:11.036Z,101767.47
2022-12-31T05:13:39.677Z,101782.25
2022-12-31T05:16:08.111Z,101784.91
2022-12-31T05:18:36.963Z,101787.47
2022-12-31T05:21:04.950Z,101784.00
2022-12-31T05:23:32.558Z,101797.94
2022-12-31T05:26:01.961Z,101814.50
2022-12-31T05:28:29.962Z,101807.53
2022-12-31T05:30:57.604Z,101818.00
2022-12-31T05:33:25.352Z,101814.53
2022-12-31T05:35:52.958Z,101824.13
2022-12-31T05:38:21.338Z,101811.03
2022-12-31T05:40:48.937Z,101818.88
2022-12-31T05:43:16.527Z,101825.88
2022-12-31T05:45:44.640Z,101834.63
2022-12-31T05:48:12.287Z,101833.75
2022-12-31T05:50:39.835Z,101834.56
2022-12-31T05:53:09.729Z,101840.72
2022-12-31T05:55:38.011Z,101836.34
2022-12-31T05:58:05.534Z,101830.25
2022-12-31T06:00:33.201Z,101836.28
2022-12-31T06:03:00.819Z,101838.03
2022-12-31T06:05:28.725Z,101842.38
2022-12-31T06:07:56.237Z,101840.56
2022-12-31T06:10:24.124Z,101838.81
2022-12-31T06:12:52.040Z,101831.78
2022-12-31T06:15:19.707Z,101826.53
2022-12-31T06:17:47.828Z,101832.59
2022-12-31T06:20:15.773Z,101829.94
2022-12-31T06:22:43.397Z,101828.16
2022-12-31T06:25:11.083Z,101825.56
2022-12-31T06:27:38.693Z,101826.44
2022-12-31T06:30:07.182Z,101831.72
2022-12-31T06:32:35.538Z,101843.88
2022-12-31T06:35:03.815Z,101849.13
2022-12-31T06:37:31.430Z,101874.34
2022-12-31T06:40:01.232Z,101869.06
2022-12-31T06:42:31.002Z,101883.88
2022-12-31T06:44:59.201Z,101889.03
2022-12-31T06:47:26.846Z,101884.66
2022-12-31T06:49:54.557Z,101876.00
2022-12-31T06:52:22.455Z,101883.91
2022-12-31T06:54:50.957Z,101890.88
2022-12-31T06:57:18.911Z,101883.91
2022-12-31T06:59:46.878Z,101876.09
2022-12-31T07:02:35.340Z,101891.78
2022-12-31T07:05:21.423Z,101895.28
2022-12-31T07:07:49.544Z,101892.66
2022-12-31T07:10:25.542Z,101898.78
2022-12-31T07:13:18.520Z,101912.69
2022-12-31T07:16:07.702Z,101915.25
2022-12-31T07:18:43.053Z,101915.25
2022-12-31T07:21:13.735Z,101916.97
2022-12-31T07:23:42.803Z,101920.44
2022-12-31T07:26:35.796Z,101926.47
2022-12-31T07:29:25.336Z,101929.00
2022-12-31T07:32:26.998Z,101928.91
2022-12-31T07:35:09.787Z,101928.13
2022-12-31T07:38:01.463Z,101933.34
2022-12-31T07:40:38.197Z,101939.47
2022-12-31T07:43:34.649Z,101940.31
2022-12-31T07:46:20.742Z,101955.13
2022-12-31T07:48:48.592Z,101962.94
2022-12-31T07:51:16.671Z,101953.31
2022-12-31T07:53:44.339Z,101958.50
2022-12-31T07:56:12.576Z,101970.75
2022-12-31T07:58:40.071Z,101966.38
2022-12-31T08:01:13.002Z,101970.63
2022-12-31T08:03:49.410Z,101967.16
2022-12-31T08:06:58.382Z,101976.84
2022-12-31T08:09:43.180Z,101970.72
2022-12-31T08:12:11.231Z,101969.78
2022-12-31T08:14:48.831Z,101962.88
2022-12-31T08:17:18.832Z,101958.41
2022-12-31T08:19:47.143Z,101963.56
2022-12-31T08:22:23.868Z,101967.00
2022-12-31T08:25:19.477Z,101971.22
2022-12-31T08:27:58.460Z,101962.63
2022-12-31T08:30:37.126Z,101967.13
2022-12-31T08:33:19.640Z,101961.88
2022-12-31T08:36:22.407Z,101973.13
2022-12-31T08:39:19.006Z,101973.97
2022-12-31T08:41:49.856Z,101970.56
2022-12-31T08:44:45.692Z,101977.59
2022-12-31T08:47:16.623Z,101964.50
2022-12-31T08:49:44.560Z,101970.53
2022-12-31T08:52:20.220Z,101966.97
2022-12-31T08:54:48.025Z,101958.22
2022-12-31T08:57:23.452Z,101952.94
2022-12-31T09:00:06.713Z,101953.81
2022-12-31T09:02:34.690Z,101952.81
2022-12-31T09:05:07.443Z,101944.91
2022-12-31T09:07:40.935Z,101948.28
2022-12-31T09:10:30.278Z,101950.84
2022-12-31T09:13:11.369Z,101948.06
2022-12-31T09:15:57.039Z,101936.00
2022-12-31T09:18:29.751Z,101939.34
2022-12-31T09:21:02.935Z,101939.34
2022-12-31T09:23:31.765Z,101930.47
2022-12-31T09:26:11.165Z,101941.75
2022-12-31T09:28:48.743Z,101933.06
2022-12-31T09:31:34.977Z,101935.63
2022-12-31T09:34:15.407Z,101932.94
2022-12-31T09:36:50.569Z,101925.00
2022-12-31T09:39:30.421Z,101931.06
2022-12-31T09:42:21.138Z,101922.25
2022-12-31T09:45:15.865Z,101925.66
2022-12-31T09:48:14.562Z,101916.03
2022-12-31T09:50:42.989Z,101916.94
2022-12-31T09:53:31.697Z,101920.47
2022-12-31T09:56:29.220Z,101920.53
2022-12-31T09:59:18.980Z,101918.59
2022-12-31T10:02:05.042Z,101923.69
2022-12-31T10:04:52.667Z,101924.47
2022-12-31T10:07:52.156Z,101922.63
2022-12-31T10:10:34.522Z,101925.13
2022-12-31T10:13:08.088Z,101924.97
2022-12-31T10:15:55.088Z,101926.72
2022-12-31T10:18:23.766Z,101924.88
2022-12-31T10:21:07.457Z,101924.94
2022-12-31T10:23:44.589Z,101915.22
2022-12-31T17:11:36.578Z,102115.91
2022-12-31T17:14:10.572Z,102115.88
2022-12-31T17:17:03.002Z,102119.38
2022-12-31T17:19:43.417Z,102114.16
2022-12-31T17:22:17.714Z,102118.53
2022-12-31T17:24:48.955Z,102114.19
2022-12-31T17:27:17.609Z,102103.72
2022-12-31T17:29:45.272Z,102092.44
2022-12-31T17:32:37.092Z,102096.78
2022-12-31T17:35:42.151Z,102095.88
2022-12-31T17:38:18.709Z,102092.44
2022-12-31T17:40:51.645Z,102100.28
2022-12-31T17:43:22.759Z,102101.16
2022-12-31T17:45:54.577Z,102102.94
2022-12-31T17:48:24.420Z,102115.13
2022-12-31T17:50:53.997Z,102115.13
2022-12-31T17:53:22.037Z,102110.75
2022-12-31T17:55:55.989Z,102107.25
2022-12-31T17:58:46.293Z,102107.28
2022-12-31T18:01:16.495Z,102111.63
2022-12-31T18:03:44.577Z,102113.34
2022-12-31T18:06:16.662Z,102111.66
2022-12-31T18:08:44.788Z,102122.09
2022-12-31T18:11:17.168Z,102122.09
2022-12-31T18:13:45.497Z,102119.50
2022-12-31T18:16:14.561Z,102116.84
2022-12-31T18:18:42.531Z,102110.78
2022-12-31T18:21:18.190Z,102106.41
2022-12-31T18:23:48.131Z,102099.47
2022-12-31T18:26:22.171Z,102096.84
2022-12-31T18:28:51.006Z,102093.38
2022-12-31T18:31:21.675Z,102086.41
2022-12-31T18:33:50.742Z,102088.13
2022-12-31T18:36:20.024Z,102091.63
2022-12-31T18:38:47.732Z,102089.88
2022-12-31T18:41:24.420Z,102092.47
2022-12-31T18:43:52.268Z,102088.13
2022-12-31T18:46:24.979Z,102091.63
2022-12-31T18:48:52.807Z,102081.16
2022-12-31T18:51:29.326Z,102082.06
2022-12-31T18:53:59.806Z,102088.13
2022-12-31T18:56:28.100Z,102075.94
2022-12-31T18:58:55.984Z,102083.78
2022-12-31T19:01:32.390Z,102072.47
2022-12-31T19:04:03.179Z,102078.56
2022-12-31T19:06:31.075Z,102077.69
2022-12-31T19:09:00.904Z,102074.22
2022-12-31T19:11:33.089Z,102057.69
2022-12-31T19:14:01.131Z,102060.28
2022-12-31T19:16:29.211Z,102056.78
2022-12-31T19:18:57.036Z,102062.88
2022-12-31T19:21:24.829Z,102060.25
2022-12-31T19:23:52.385Z,102065.50
2022-12-31T19:26:22.046Z,102065.50
2022-12-31T19:28:51.177Z,102078.56
2022-12-31T19:31:18.808Z,102073.34
2022-12-31T19:33:47.100Z,102078.56
2022-12-31T19:36:19.762Z,102074.22
2022-12-31T19:38:47.460Z,102082.06
2022-12-31T19:41:20.145Z,102078.56
2022-12-31T19:43:48.216Z,102079.44
2022-12-31T19:46:17.624Z,102075.97
2022-12-31T19:48:46.425Z,102072.47
2022-12-31T19:51:19.253Z,102080.28
2022-12-31T19:53:48.457Z,102079.44
2022-12-31T19:56:19.593Z,102077.69
2022-12-31T19:58:47.413Z,102079.44
2022-12-31T20:01:25.170Z,102075.94
2022-12-31T20:03:52.821Z,102070.75
2022-12-31T20:06:20.438Z,102070.75
2022-12-31T20:08:48.067Z,102062.91
2022-12-31T20:11:19.115Z,102063.75
2022-12-31T20:13:49.016Z,102066.38
2022-12-31T20:16:19.065Z,102064.66
2022-12-31T20:18:47.702Z,102055.94
2022-12-31T20:21:21.009Z,102050.72
2022-12-31T20:23:50.253Z,102054.19
2022-12-31T20:26:18.771Z,102054.19
2022-12-31T20:28:46.452Z,102045.50
2022-12-31T20:31:17.129Z,102044.59
2022-12-31T20:33:44.913Z,102046.38
2022-12-31T20:36:14.747Z,102044.63
2022-12-31T20:38:42.304Z,102046.34
2022-12-31T20:41:16.091Z,102051.56
2022-12-31T20:43:44.620Z,102053.31
2022-12-31T20:46:21.257Z,102057.69
2022-12-31T20:48:51.926Z,102067.25
2022-12-31T20:51:21.005Z,102058.56
2022-12-31T20:53:57.513Z,102061.16
2022-12-31T20:56:27.359Z,102055.06
2022-12-31T20:58:54.939Z,102045.47
2022-12-31T21:01:25.108Z,102053.31
2022-12-31T21:04:09.447Z,102053.34
2022-12-31T21:06:37.132Z,102042.00
2022-12-31T21:09:07.333Z,102050.72
2022-12-31T21:11:53.625Z,102046.38
2022-12-31T21:14:21.490Z,102048.97
2022-12-31T21:16:49.807Z,102062.88
2022-12-31T21:19:17.268Z,102059.44
2022-12-31T21:21:44.897Z,102055.94
2022-12-31T21:24:12.421Z,102058.53
2022-12-31T21:26:40.067Z,102051.59
2022-12-31T21:29:07.742Z,102037.63
2022-12-31T21:31:35.591Z,102028.97
2022-12-31T21:34:03.225Z,102016.78
2022-12-31T21:36:31.303Z,102015.00
2022-12-31T21:38:59.317Z,102004.56
2022-12-31T21:41:45.495Z,101989.78
2022-12-31T21:44:13.041Z,101981.09
2022-12-31T21:46:54.509Z,101975.84
2022-12-31T21:49:28.161Z,101980.22
2022-12-31T21:52:14.696Z,101983.69
2022-12-31T21:55:00.912Z,101998.47
2022-12-31T21:57:29.453Z,102003.72
2022-12-31T22:00:41.008Z,102018.50
2022-12-31T22:03:23.086Z,102039.38
2022-12-31T22:06:14.000Z,102035.91
2022-12-31T22:08:44.115Z,102037.63
2022-12-31T22:11:13.674Z,102037.63
2022-12-31T22:13:41.829Z,102041.13
2022-12-31T22:16:09.844Z,102035.91
2022-12-31T22:18:39.221Z,102043.72
2022-12-31T22:21:18.242Z,102045.44
2022-12-31T22:23:50.151Z,102033.28
2022-12-31T22:26:19.878Z,102023.72
2022-12-31T22:28:47.710Z,102023.72
2022-12-31T22:31:21.849Z,102028.91
2022-12-31T22:33:49.388Z,102014.13
2022-12-31T22:36:19.908Z,102013.25
2022-12-31T22:38:49.159Z,102021.06
2022-12-31T22:41:21.695Z,102002.81
2022-12-31T22:43:52.831Z,102008.91
2022-12-31T22:46:24.892Z,102007.19
2022-12-31T22:48:56.450Z,102014.13
2022-12-31T22:51:23.962Z,101993.28
2022-12-31T22:53:51.889Z,102005.47
2022-12-31T22:56:20.288Z,101997.63
2022-12-31T22:58:48.107Z,101983.72
2022-12-31T23:01:19.165Z,101991.53
2022-12-31T23:03:47.357Z,101984.59
2022-12-31T23:06:17.033Z,101989.78
2022-12-31T23:09:06.950Z,101991.53
2022-12-31T23:11:36.543Z,101997.59
2022-12-31T23:14:24.202Z,101994.97
2022-12-31T23:17:29.745Z,101991.50
2022-12-31T23:20:16.782Z,101991.53
2022-12-31T23:23:05.893Z,101974.97
2022-12-31T23:25:43.309Z,101976.72
2022-12-31T23:28:16.789Z,101966.28
2022-12-31T23:30:48.137Z,101970.63
2022-12-31T23:33:22.163Z,101980.22
2022-12-31T23:35:50.262Z,101967.16
2022-12-31T23:38:18.337Z,101968.00
2022-12-31T23:40:45.942Z,101966.28
2022-12-31T23:43:21.699Z,101965.41
2022-12-31T23:45:53.195Z,101957.59
2022-12-31T23:48:20.960Z,101952.38
2022-12-31T23:50:53.455Z,101945.38
2022-12-31T23:53:23.270Z,101945.38
2022-12-31T23:55:51.523Z,101940.19
2022-12-31T23:58:19.502Z,101934.97
